Bessemer, Alabama
Current Conditions -  °F | °C
As of 12:53 PM on Friday 24 Oct 2014 (Local Time) from KBHM Reporting Station
Clear Clear  
Wind Chill: 72°   Ceiling: Unl
Heat Index: 72°   Visibility: 10mi
Dew Point: 41°   Wind: 9mph
Humidity: 33%   Direction: 350°N
Pressure: 30.09"   Gusts: NA
Location:  33.4°N, 86.95°W
Report Text: KBHM 241753Z 35008KT 10SM CLR 22/05 A3009 RMK AO2 SLP184 T02220050 10222 20111 58017
Loading
Personal Weather Stations






























Interactive Weather Map
Tropical Storm Tracking
New forecast layout! Learn more

10-Day Weather Forecast

Advertisements
Track Severe Weather on mobile